Bow Fagus — LAUE4 — position and weather

sailwx.info

Track history (hours):
 
Tides and Currents Weather Stations Pressure Air Temp Water Temp Dewpoint Dewpoint Depression Visibility Wind Speed Wind Dir Waves Ship Positions

Bow Fagus

Last reported at 2018-Feb-13 15:55 UTC. Time now 2018-Feb-20 11:34 UTC.
Position N 29°23' W 094°49'.

Length 184 m; draft 7 m.

Type: Ship (hazmat cat B). MMSI: 258924000.

Date/timePositionNaut miles runAvg speedWind from/ knotsBaromVisibWave heightAir tempDewpointWater temp
2018-Feb-13 15:55N 29°23' W 094°49'614.2
2018-Feb-13 15:30N 29°29' W 094°52'713.3
2018-Feb-13 15:00N 29°34' W 094°56'4 8.7
2018-Feb-13 14:30N 29°37' W 094°60'1 2.2
2018-Feb-13 13:55N 29°37' W 095°01'0 0.0
2018-Feb-13 13:28N 29°37' W 095°01'0 0.0
2018-Feb-13 12:58N 29°37' W 095°01'0 0.0
2018-Feb-13 12:28N 29°37' W 095°01'0 0.0
2018-Feb-13 11:55N 29°37' W 095°01'0 0.0
2018-Feb-13 11:28N 29°37' W 095°01'0 0.0
2018-Feb-13 10:58N 29°37' W 095°01'0 0.0
2018-Feb-13 10:28N 29°37' W 095°01'0 0.0
2018-Feb-13 09:58N 29°37' W 095°01'0 0.0
2018-Feb-13 02:07N 29°37' W 095°01'0 0.0
2018-Feb-13 01:58N 29°37' W 095°01'0 0.0
2018-Feb-13 01:25N 29°37' W 095°01'0 0.0
2018-Feb-13 00:58N 29°37' W 095°01'0 0.0
2018-Feb-13 00:25N 29°37' W 095°01'0 0.0
2018-Feb-12 23:58N 29°37' W 095°01'0 0.0
2018-Feb-12 23:28N 29°37' W 095°01'0 0.0
2018-Feb-12 22:58N 29°37' W 095°01'0 0.0
2018-Feb-12 22:28N 29°37' W 095°01'0 0.0
2018-Feb-12 21:58N 29°37' W 095°01'0 0.0
2018-Feb-12 21:28N 29°37' W 095°01'0 0.0
2018-Feb-12 20:58N 29°37' W 095°01'0 0.0
2018-Feb-12 20:28N 29°37' W 095°01'0 0.0
2018-Feb-12 19:58N 29°37' W 095°01'0 0.0
2018-Feb-12 19:25N 29°37' W 095°01'0 0.0
2018-Feb-12 18:58N 29°37' W 095°01'0 0.0
2018-Feb-12 18:28N 29°37' W 095°01'0 0.0
2018-Feb-12 17:58N 29°37' W 095°01'0 0.0
2018-Feb-12 17:28N 29°37' W 095°01'0 0.0
2018-Feb-12 16:58N 29°37' W 095°01'0 0.0
2018-Feb-12 16:28N 29°37' W 095°01'0 0.0
2018-Feb-12 15:58N 29°37' W 095°01'0 0.0
2018-Feb-12 15:13N 29°37' W 095°01'0 0.0
2018-Feb-12 14:58N 29°37' W 095°01'0 0.0
2018-Feb-12 14:28N 29°37' W 095°01'1 1.3
2018-Feb-12 14:01N 29°37' W 095°01'3 5.6
2018-Feb-12 13:31N 29°38' W 094°58'5 9.7
2018-Feb-12 13:01N 29°42' W 095°00'3 5.3
2018-Feb-12 12:31N 29°44' W 095°02'3 6.4
2018-Feb-12 12:01N 29°45' W 095°06'  
2018-Feb-10 00:11N 29°45' W 095°06'0 0.1
2018-Feb-10 00:00N 29°45' W 095°06'1 1.3
2018-Feb-09 23:30N 29°45' W 095°06'3 6.4
2018-Feb-09 22:59N 29°44' W 095°02'1 6.5
2018-Feb-09 22:46N 29°43' W 095°01'1511.7
2018-Feb-09 21:31N 29°30' W 094°52'36 1.2
2018-Feb-08 16:00N 29°07' W 094°20'  
Track history (hours):
 
Tides and Currents Weather Stations Pressure Air Temp Water Temp Dewpoint Dewpoint Depression Visibility Wind Speed Wind Dir Waves Ship Positions

Bow Fagus

Last reported at 2018-Feb-13 15:55 UTC. Time now 2018-Feb-20 11:34 UTC.
Position N 29°23' W 094°49'.

Length 184 m; draft 7 m.

Type: Ship (hazmat cat B). MMSI: 258924000.

Date/timePositionNaut miles runAvg speedWind from/ knotsBaromVisibWave heightAir tempDewpointWater temp
2018-Feb-13 15:55N 29°23' W 094°49'614.2
2018-Feb-13 15:30N 29°29' W 094°52'713.3
2018-Feb-13 15:00N 29°34' W 094°56'4 8.7
2018-Feb-13 14:30N 29°37' W 094°60'1 2.2
2018-Feb-13 13:55N 29°37' W 095°01'0 0.0
2018-Feb-13 13:28N 29°37' W 095°01'0 0.0
2018-Feb-13 12:58N 29°37' W 095°01'0 0.0
2018-Feb-13 12:28N 29°37' W 095°01'0 0.0
2018-Feb-13 11:55N 29°37' W 095°01'0 0.0
2018-Feb-13 11:28N 29°37' W 095°01'0 0.0
2018-Feb-13 10:58N 29°37' W 095°01'0 0.0
2018-Feb-13 10:28N 29°37' W 095°01'0 0.0
2018-Feb-13 09:58N 29°37' W 095°01'0 0.0
2018-Feb-13 02:07N 29°37' W 095°01'0 0.0
2018-Feb-13 01:58N 29°37' W 095°01'0 0.0
2018-Feb-13 01:25N 29°37' W 095°01'0 0.0
2018-Feb-13 00:58N 29°37' W 095°01'0 0.0
2018-Feb-13 00:25N 29°37' W 095°01'0 0.0
2018-Feb-12 23:58N 29°37' W 095°01'0 0.0
2018-Feb-12 23:28N 29°37' W 095°01'0 0.0
2018-Feb-12 22:58N 29°37' W 095°01'0 0.0
2018-Feb-12 22:28N 29°37' W 095°01'0 0.0
2018-Feb-12 21:58N 29°37' W 095°01'0 0.0
2018-Feb-12 21:28N 29°37' W 095°01'0 0.0
2018-Feb-12 20:58N 29°37' W 095°01'0 0.0
2018-Feb-12 20:28N 29°37' W 095°01'0 0.0
2018-Feb-12 19:58N 29°37' W 095°01'0 0.0
2018-Feb-12 19:25N 29°37' W 095°01'0 0.0
2018-Feb-12 18:58N 29°37' W 095°01'0 0.0
2018-Feb-12 18:28N 29°37' W 095°01'0 0.0
2018-Feb-12 17:58N 29°37' W 095°01'0 0.0
2018-Feb-12 17:28N 29°37' W 095°01'0 0.0
2018-Feb-12 16:58N 29°37' W 095°01'0 0.0
2018-Feb-12 16:28N 29°37' W 095°01'0 0.0
2018-Feb-12 15:58N 29°37' W 095°01'0 0.0
2018-Feb-12 15:13N 29°37' W 095°01'0 0.0
2018-Feb-12 14:58N 29°37' W 095°01'0 0.0
2018-Feb-12 14:28N 29°37' W 095°01'1 1.3
2018-Feb-12 14:01N 29°37' W 095°01'3 5.6
2018-Feb-12 13:31N 29°38' W 094°58'5 9.7
2018-Feb-12 13:01N 29°42' W 095°00'3 5.3
2018-Feb-12 12:31N 29°44' W 095°02'3 6.4
2018-Feb-12 12:01N 29°45' W 095°06'  
2018-Feb-10 00:11N 29°45' W 095°06'0 0.1
2018-Feb-10 00:00N 29°45' W 095°06'1 1.3
2018-Feb-09 23:30N 29°45' W 095°06'3 6.4
2018-Feb-09 22:59N 29°44' W 095°02'1 6.5
2018-Feb-09 22:46N 29°43' W 095°01'1511.7
2018-Feb-09 21:31N 29°30' W 094°52'36 1.2
2018-Feb-08 16:00N 29°07' W 094°20'  

Dump ship's entire track history